Terminal Aerodrome Forecast
Issued by NWS

Home | Current Version | Previous Version | Text Only | Print | Product List | Glossary On
Versions: 1 2 3 4 5 6 7 8 9 10 11 12 13 14 15
546
FTUS43 KJKL 071140
TAFSME
TAF
KSME 071140Z 0712/0812 VRB03KT P6SM FEW020 SCT100
     FM080800 33004KT P6SM VCSH SCT050 OVC100=

USA.gov is the U.S. government's official web portal to all federal, state and local government web resources and services.